X  Close Metar Aviation Weather Data     CYYC Calgary International Airport
Temperature
15°C Temperature
11°C Dewpoint
77% Humidity



Wind
11 KM/H
7 MPH
3 M/S
6 KTS



330°
NNW
Current Conditions

Mostly Scattered Clouds Mostly Scattered Clouds
Pressure 1019.32 (hPa) - 30.1 (inHg)
Visibility 14.9 (mile) - 24 (km)
Airport
Airport-code CYYC

Location: Calgary International Airport
Distance: 4 (km)

Metar:
CYYC 241800Z 33006KT 290V360 15SM SCT016TCU BKN035 BKN060 BKN130 15/11 A3010 RMK TCU4SC2SC1ACC1 ACC TR /R13/ SLP202 DENSITY ALT 4200FT

Time: 24-06-2021 12:00 MDT